sensor_id;sensor_type;location;lat;lon;timestamp;temperature;humidity
7814;DHT22;3952;48.364;16.022;2023-04-01T00:01:53;10.20;99.90
7814;DHT22;3952;48.364;16.022;2023-04-01T00:04:20;10.20;99.90
7814;DHT22;3952;48.364;16.022;2023-04-01T00:06:47;10.20;99.90
7814;DHT22;3952;48.364;16.022;2023-04-01T00:09:14;10.20;99.90
7814;DHT22;3952;48.364;16.022;2023-04-01T00:11:42;10.20;99.90
7814;DHT22;3952;48.364;16.022;2023-04-01T00:14:11;10.20;99.90
7814;DHT22;3952;48.364;16.022;2023-04-01T00:16:39;10.20;99.90
7814;DHT22;3952;48.364;16.022;2023-04-01T00:19:06;10.10;99.90
7814;DHT22;3952;48.364;16.022;2023-04-01T00:21:33;10.10;99.90
7814;DHT22;3952;48.364;16.022;2023-04-01T00:24:01;10.10;99.90
7814;DHT22;3952;48.364;16.022;2023-04-01T00:26:28;10.10;99.90
7814;DHT22;3952;48.364;16.022;2023-04-01T00:28:55;10.10;99.90
7814;DHT22;3952;48.364;16.022;2023-04-01T00:31:24;10.10;99.90
7814;DHT22;3952;48.364;16.022;2023-04-01T00:33:51;10.10;99.90
7814;DHT22;3952;48.364;16.022;2023-04-01T00:36:20;10.10;99.90
7814;DHT22;3952;48.364;16.022;2023-04-01T00:38:49;10.20;99.90
7814;DHT22;3952;48.364;16.022;2023-04-01T00:41:18;10.20;99.90
7814;DHT22;3952;48.364;16.022;2023-04-01T00:43:48;10.20;99.90
7814;DHT22;3952;48.364;16.022;2023-04-01T00:46:15;10.20;99.90
7814;DHT22;3952;48.364;16.022;2023-04-01T00:48:47;10.20;99.90
7814;DHT22;3952;48.364;16.022;2023-04-01T00:51:18;10.20;99.90
7814;DHT22;3952;48.364;16.022;2023-04-01T00:53:49;10.20;99.90
7814;DHT22;3952;48.364;16.022;2023-04-01T00:56:19;10.20;99.90
7814;DHT22;3952;48.364;16.022;2023-04-01T00:58:51;10.20;99.90
7814;DHT22;3952;48.364;16.022;2023-04-01T01:01:22;10.20;99.90
7814;DHT22;3952;48.364;16.022;2023-04-01T01:03:52;10.20;99.90
7814;DHT22;3952;48.364;16.022;2023-04-01T01:06:39;10.20;99.90
7814;DHT22;3952;48.364;16.022;2023-04-01T01:09:21;10.20;99.90
7814;DHT22;3952;48.364;16.022;2023-04-01T01:11:57;10.20;99.90
7814;DHT22;3952;48.364;16.022;2023-04-01T01:14:36;10.10;99.90
7814;DHT22;3952;48.364;16.022;2023-04-01T01:17:13;10.10;99.90
7814;DHT22;3952;48.364;16.022;2023-04-01T01:25:59;10.10;99.90
7814;DHT22;3952;48.364;16.022;2023-04-01T01:28:39;10.00;99.90
7814;DHT22;3952;48.364;16.022;2023-04-01T01:31:16;10.10;99.90
7814;DHT22;3952;48.364;16.022;2023-04-01T01:33:58;10.10;99.90
7814;DHT22;3952;48.364;16.022;2023-04-01T01:36:32;10.00;99.90
7814;DHT22;3952;48.364;16.022;2023-04-01T01:39:01;10.10;99.90
7814;DHT22;3952;48.364;16.022;2023-04-01T01:41:31;10.10;99.90
7814;DHT22;3952;48.364;16.022;2023-04-01T01:44:00;10.10;99.90
7814;DHT22;3952;48.364;16.022;2023-04-01T01:46:30;10.10;99.90
7814;DHT22;3952;48.364;16.022;2023-04-01T01:48:59;10.10;99.90
7814;DHT22;3952;48.364;16.022;2023-04-01T01:51:28;10.10;99.90
7814;DHT22;3952;48.364;16.022;2023-04-01T01:53:57;10.10;99.90
7814;DHT22;3952;48.364;16.022;2023-04-01T01:56:27;10.10;99.90
7814;DHT22;3952;48.364;16.022;2023-04-01T01:58:59;10.00;99.90
7814;DHT22;3952;48.364;16.022;2023-04-01T02:01:29;10.00;99.90
7814;DHT22;3952;48.364;16.022;2023-04-01T02:03:58;10.10;99.90
7814;DHT22;3952;48.364;16.022;2023-04-01T02:06:28;10.00;99.90
7814;DHT22;3952;48.364;16.022;2023-04-01T02:09:00;10.00;99.90
7814;DHT22;3952;48.364;16.022;2023-04-01T02:11:31;10.00;99.90
7814;DHT22;3952;48.364;16.022;2023-04-01T02:14:04;10.00;99.90
7814;DHT22;3952;48.364;16.022;2023-04-01T02:16:36;10.00;99.90
7814;DHT22;3952;48.364;16.022;2023-04-01T02:19:04;10.00;99.90
7814;DHT22;3952;48.364;16.022;2023-04-01T02:21:33;10.00;99.90
7814;DHT22;3952;48.364;16.022;2023-04-01T02:24:07;10.00;99.90
7814;DHT22;3952;48.364;16.022;2023-04-01T02:26:35;10.00;99.90
7814;DHT22;3952;48.364;16.022;2023-04-01T02:29:05;10.00;99.90
7814;DHT22;3952;48.364;16.022;2023-04-01T02:31:34;10.00;99.90
7814;DHT22;3952;48.364;16.022;2023-04-01T02:34:03;10.00;99.90
7814;DHT22;3952;48.364;16.022;2023-04-01T02:36:30;9.90;99.90
7814;DHT22;3952;48.364;16.022;2023-04-01T02:38:58;9.80;99.90
7814;DHT22;3952;48.364;16.022;2023-04-01T02:41:29;9.70;99.90
7814;DHT22;3952;48.364;16.022;2023-04-01T02:43:56;9.70;99.90
7814;DHT22;3952;48.364;16.022;2023-04-01T02:46:25;9.70;99.90
7814;DHT22;3952;48.364;16.022;2023-04-01T02:48:52;9.60;99.90
7814;DHT22;3952;48.364;16.022;2023-04-01T02:51:20;9.60;99.90
7814;DHT22;3952;48.364;16.022;2023-04-01T02:53:47;9.60;99.90
7814;DHT22;3952;48.364;16.022;2023-04-01T02:56:15;9.60;99.90
7814;DHT22;3952;48.364;16.022;2023-04-01T02:58:43;9.60;99.90
7814;DHT22;3952;48.364;16.022;2023-04-01T03:01:11;9.60;99.90
7814;DHT22;3952;48.364;16.022;2023-04-01T03:03:38;9.60;99.90
7814;DHT22;3952;48.364;16.022;2023-04-01T03:06:06;9.60;99.90
7814;DHT22;3952;48.364;16.022;2023-04-01T03:08:35;9.50;99.90
7814;DHT22;3952;48.364;16.022;2023-04-01T03:11:02;9.50;99.90
7814;DHT22;3952;48.364;16.022;2023-04-01T03:13:30;9.50;99.90
7814;DHT22;3952;48.364;16.022;2023-04-01T03:15:58;9.50;99.90
7814;DHT22;3952;48.364;16.022;2023-04-01T03:18:26;9.50;99.90
7814;DHT22;3952;48.364;16.022;2023-04-01T03:20:53;9.50;99.90
7814;DHT22;3952;48.364;16.022;2023-04-01T03:23:20;9.60;99.90
7814;DHT22;3952;48.364;16.022;2023-04-01T03:25:50;9.60;99.90
7814;DHT22;3952;48.364;16.022;2023-04-01T03:28:17;9.70;99.90
7814;DHT22;3952;48.364;16.022;2023-04-01T03:30:44;9.60;99.90
7814;DHT22;3952;48.364;16.022;2023-04-01T03:33:13;9.60;99.90
7814;DHT22;3952;48.364;16.022;2023-04-01T03:35:40;9.60;99.90
7814;DHT22;3952;48.364;16.022;2023-04-01T03:38:07;9.50;99.90
7814;DHT22;3952;48.364;16.022;2023-04-01T03:40:34;9.60;99.90
7814;DHT22;3952;48.364;16.022;2023-04-01T03:43:04;9.50;99.90
7814;DHT22;3952;48.364;16.022;2023-04-01T03:45:33;9.50;99.90
7814;DHT22;3952;48.364;16.022;2023-04-01T03:48:01;9.40;99.90
7814;DHT22;3952;48.364;16.022;2023-04-01T03:50:29;9.50;99.90
7814;DHT22;3952;48.364;16.022;2023-04-01T03:52:56;9.50;99.90
7814;DHT22;3952;48.364;16.022;2023-04-01T03:55:23;9.40;99.90
7814;DHT22;3952;48.364;16.022;2023-04-01T03:57:51;9.40;99.90
7814;DHT22;3952;48.364;16.022;2023-04-01T04:00:18;9.40;99.90
7814;DHT22;3952;48.364;16.022;2023-04-01T04:02:45;9.40;99.90
7814;DHT22;3952;48.364;16.022;2023-04-01T04:05:13;9.40;99.90
7814;DHT22;3952;48.364;16.022;2023-04-01T04:07:42;9.40;99.90
7814;DHT22;3952;48.364;16.022;2023-04-01T04:10:09;9.40;99.90
7814;DHT22;3952;48.364;16.022;2023-04-01T04:12:36;9.30;99.90
7814;DHT22;3952;48.364;16.022;2023-04-01T04:15:04;9.30;99.90
7814;DHT22;3952;48.364;16.022;2023-04-01T04:17:32;9.30;99.90
7814;DHT22;3952;48.364;16.022;2023-04-01T04:19:59;9.20;99.90
7814;DHT22;3952;48.364;16.022;2023-04-01T04:22:26;9.20;99.90
7814;DHT22;3952;48.364;16.022;2023-04-01T04:24:55;9.20;99.90
7814;DHT22;3952;48.364;16.022;2023-04-01T04:27:22;9.20;99.90
7814;DHT22;3952;48.364;16.022;2023-04-01T04:29:49;9.20;99.90
7814;DHT22;3952;48.364;16.022;2023-04-01T04:32:17;9.20;99.90
7814;DHT22;3952;48.364;16.022;2023-04-01T04:34:44;9.10;99.90
7814;DHT22;3952;48.364;16.022;2023-04-01T04:37:11;9.10;99.90
7814;DHT22;3952;48.364;16.022;2023-04-01T04:39:38;9.10;99.90
7814;DHT22;3952;48.364;16.022;2023-04-01T04:42:07;9.10;99.90
7814;DHT22;3952;48.364;16.022;2023-04-01T04:44:34;9.10;99.90
7814;DHT22;3952;48.364;16.022;2023-04-01T04:47:01;9.20;99.90
7814;DHT22;3952;48.364;16.022;2023-04-01T04:49:29;9.10;99.90
7814;DHT22;3952;48.364;16.022;2023-04-01T04:51:56;9.10;99.90
7814;DHT22;3952;48.364;16.022;2023-04-01T04:54:23;9.10;99.90
7814;DHT22;3952;48.364;16.022;2023-04-01T04:56:51;9.10;99.90
7814;DHT22;3952;48.364;16.022;2023-04-01T04:59:20;9.00;99.90
7814;DHT22;3952;48.364;16.022;2023-04-01T05:01:47;9.00;99.90
7814;DHT22;3952;48.364;16.022;2023-04-01T05:04:14;9.00;99.90
7814;DHT22;3952;48.364;16.022;2023-04-01T05:06:43;9.00;99.90
7814;DHT22;3952;48.364;16.022;2023-04-01T05:09:11;9.00;99.90
7814;DHT22;3952;48.364;16.022;2023-04-01T05:11:38;9.00;99.90
7814;DHT22;3952;48.364;16.022;2023-04-01T05:14:05;9.00;99.90
7814;DHT22;3952;48.364;16.022;2023-04-01T05:16:35;9.10;99.90
7814;DHT22;3952;48.364;16.022;2023-04-01T05:19:02;9.10;99.90
7814;DHT22;3952;48.364;16.022;2023-04-01T05:21:29;9.20;99.90
7814;DHT22;3952;48.364;16.022;2023-04-01T05:23:56;9.30;99.90
7814;DHT22;3952;48.364;16.022;2023-04-01T05:26:24;9.30;99.90
7814;DHT22;3952;48.364;16.022;2023-04-01T05:28:51;9.30;99.90
7814;DHT22;3952;48.364;16.022;2023-04-01T05:31:18;9.40;99.90
7814;DHT22;3952;48.364;16.022;2023-04-01T05:33:47;9.50;99.90
7814;DHT22;3952;48.364;16.022;2023-04-01T05:36:15;9.50;99.90
7814;DHT22;3952;48.364;16.022;2023-04-01T05:38:43;9.50;99.90
7814;DHT22;3952;48.364;16.022;2023-04-01T05:41:12;9.60;99.90
7814;DHT22;3952;48.364;16.022;2023-04-01T05:43:40;9.60;99.90
7814;DHT22;3952;48.364;16.022;2023-04-01T05:46:07;9.70;99.90
7814;DHT22;3952;48.364;16.022;2023-04-01T05:48:35;9.70;99.90
7814;DHT22;3952;48.364;16.022;2023-04-01T05:51:04;9.70;99.90
7814;DHT22;3952;48.364;16.022;2023-04-01T05:53:31;9.70;99.90
7814;DHT22;3952;48.364;16.022;2023-04-01T05:56:03;9.70;99.90
7814;DHT22;3952;48.364;16.022;2023-04-01T05:58:30;9.80;99.90
7814;DHT22;3952;48.364;16.022;2023-04-01T06:01:01;9.80;99.90
7814;DHT22;3952;48.364;16.022;2023-04-01T06:03:29;9.80;99.90
7814;DHT22;3952;48.364;16.022;2023-04-01T06:05:56;9.80;99.90
7814;DHT22;3952;48.364;16.022;2023-04-01T06:08:25;9.90;99.90
7814;DHT22;3952;48.364;16.022;2023-04-01T06:11:01;9.90;99.90
7814;DHT22;3952;48.364;16.022;2023-04-01T06:13:42;9.90;99.90
7814;DHT22;3952;48.364;16.022;2023-04-01T06:16:18;9.90;99.90
7814;DHT22;3952;48.364;16.022;2023-04-01T06:19:12;9.90;99.90
7814;DHT22;3952;48.364;16.022;2023-04-01T06:22:16;9.90;99.90
7814;DHT22;3952;48.364;16.022;2023-04-01T06:25:06;10.00;99.90
7814;DHT22;3952;48.364;16.022;2023-04-01T06:27:49;10.00;99.90
7814;DHT22;3952;48.364;16.022;2023-04-01T06:30:38;10.10;99.90
7814;DHT22;3952;48.364;16.022;2023-04-01T06:33:35;10.10;99.90
7814;DHT22;3952;48.364;16.022;2023-04-01T06:42:28;10.20;99.90
7814;DHT22;3952;48.364;16.022;2023-04-01T06:45:05;11.40;99.90
7814;DHT22;3952;48.364;16.022;2023-04-01T06:47:43;10.30;99.90
7814;DHT22;3952;48.364;16.022;2023-04-01T06:50:21;10.40;99.90
7814;DHT22;3952;48.364;16.022;2023-04-01T06:52:58;10.50;99.90
7814;DHT22;3952;48.364;16.022;2023-04-01T06:55:32;10.50;99.90
7814;DHT22;3952;48.364;16.022;2023-04-01T06:58:10;10.50;99.90
7814;DHT22;3952;48.364;16.022;2023-04-01T07:00:40;10.50;99.90
7814;DHT22;3952;48.364;16.022;2023-04-01T07:03:17;10.50;99.90
7814;DHT22;3952;48.364;16.022;2023-04-01T07:05:46;10.50;99.90
7814;DHT22;3952;48.364;16.022;2023-04-01T07:08:17;10.60;99.90
7814;DHT22;3952;48.364;16.022;2023-04-01T07:10:47;12.40;99.90
7814;DHT22;3952;48.364;16.022;2023-04-01T07:13:22;10.80;99.90
7814;DHT22;3952;48.364;16.022;2023-04-01T07:15:58;11.00;99.90
7814;DHT22;3952;48.364;16.022;2023-04-01T07:18:32;11.20;99.90
7814;DHT22;3952;48.364;16.022;2023-04-01T07:21:02;11.40;99.90
7814;DHT22;3952;48.364;16.022;2023-04-01T07:23:33;11.60;99.90
7814;DHT22;3952;48.364;16.022;2023-04-01T07:26:14;11.80;99.90
7814;DHT22;3952;48.364;16.022;2023-04-01T07:28:44;11.90;99.90
7814;DHT22;3952;48.364;16.022;2023-04-01T07:31:18;12.00;99.90
7814;DHT22;3952;48.364;16.022;2023-04-01T07:33:55;12.10;99.90
7814;DHT22;3952;48.364;16.022;2023-04-01T07:36:31;12.20;99.90
7814;DHT22;3952;48.364;16.022;2023-04-01T07:39:09;12.30;99.90
7814;DHT22;3952;48.364;16.022;2023-04-01T07:41:48;12.50;99.90
7814;DHT22;3952;48.364;16.022;2023-04-01T07:44:27;12.60;99.90
7814;DHT22;3952;48.364;16.022;2023-04-01T07:50:04;12.90;99.90
7814;DHT22;3952;48.364;16.022;2023-04-01T07:52:38;13.00;99.90
7814;DHT22;3952;48.364;16.022;2023-04-01T07:55:12;13.00;99.90
7814;DHT22;3952;48.364;16.022;2023-04-01T07:57:47;13.00;99.90
7814;DHT22;3952;48.364;16.022;2023-04-01T08:00:20;13.20;99.90
7814;DHT22;3952;48.364;16.022;2023-04-01T08:03:05;13.30;99.90
7814;DHT22;3952;48.364;16.022;2023-04-01T08:05:41;13.40;99.90
7814;DHT22;3952;48.364;16.022;2023-04-01T08:08:16;13.40;99.90
7814;DHT22;3952;48.364;16.022;2023-04-01T08:10:49;13.50;99.90
7814;DHT22;3952;48.364;16.022;2023-04-01T08:13:25;13.50;99.90
7814;DHT22;3952;48.364;16.022;2023-04-01T08:16:07;13.50;99.90
7814;DHT22;3952;48.364;16.022;2023-04-01T08:18:44;13.50;99.90
7814;DHT22;3952;48.364;16.022;2023-04-01T08:21:18;13.60;99.90
7814;DHT22;3952;48.364;16.022;2023-04-01T08:23:49;13.70;99.90
7814;DHT22;3952;48.364;16.022;2023-04-01T08:26:25;13.70;99.90
7814;DHT22;3952;48.364;16.022;2023-04-01T08:28:57;13.70;99.90
7814;DHT22;3952;48.364;16.022;2023-04-01T08:31:33;13.70;99.90
7814;DHT22;3952;48.364;16.022;2023-04-01T08:34:04;13.80;99.90
7814;DHT22;3952;48.364;16.022;2023-04-01T08:36:35;13.80;99.90
7814;DHT22;3952;48.364;16.022;2023-04-01T08:39:07;13.70;99.90
7814;DHT22;3952;48.364;16.022;2023-04-01T08:41:51;13.80;99.90
7814;DHT22;3952;48.364;16.022;2023-04-01T08:44:43;14.00;99.90
7814;DHT22;3952;48.364;16.022;2023-04-01T08:47:39;14.10;99.90
7814;DHT22;3952;48.364;16.022;2023-04-01T08:50:36;14.10;99.90
7814;DHT22;3952;48.364;16.022;2023-04-01T08:53:13;14.30;99.90
7814;DHT22;3952;48.364;16.022;2023-04-01T08:55:54;14.40;99.90
7814;DHT22;3952;48.364;16.022;2023-04-01T09:04:38;15.00;99.90
7814;DHT22;3952;48.364;16.022;2023-04-01T09:07:28;15.10;99.90
7814;DHT22;3952;48.364;16.022;2023-04-01T09:10:20;15.10;99.90
7814;DHT22;3952;48.364;16.022;2023-04-01T09:13:13;14.90;99.90
7814;DHT22;3952;48.364;16.022;2023-04-01T09:16:25;14.70;99.90
7814;DHT22;3952;48.364;16.022;2023-04-01T09:19:11;14.60;99.90
7814;DHT22;3952;48.364;16.022;2023-04-01T09:27:37;15.00;99.90
7814;DHT22;3952;48.364;16.022;2023-04-01T09:30:31;15.00;99.90
7814;DHT22;3952;48.364;16.022;2023-04-01T09:33:39;15.00;99.90
7814;DHT22;3952;48.364;16.022;2023-04-01T09:36:19;15.00;99.90
7814;DHT22;3952;48.364;16.022;2023-04-01T09:38:56;15.10;99.90
7814;DHT22;3952;48.364;16.022;2023-04-01T09:41:31;15.10;99.90
7814;DHT22;3952;48.364;16.022;2023-04-01T09:44:02;15.20;99.90
7814;DHT22;3952;48.364;16.022;2023-04-01T09:46:54;15.40;99.90
7814;DHT22;3952;48.364;16.022;2023-04-01T09:49:55;15.60;99.90
7814;DHT22;3952;48.364;16.022;2023-04-01T09:52:36;15.70;99.90
7814;DHT22;3952;48.364;16.022;2023-04-01T09:58:32;15.60;99.90
7814;DHT22;3952;48.364;16.022;2023-04-01T10:07:52;15.30;99.90
7814;DHT22;3952;48.364;16.022;2023-04-01T10:10:47;15.20;99.90
7814;DHT22;3952;48.364;16.022;2023-04-01T10:13:58;15.10;99.90
7814;DHT22;3952;48.364;16.022;2023-04-01T10:16:58;15.00;99.90
7814;DHT22;3952;48.364;16.022;2023-04-01T10:19:55;14.90;99.90
7814;DHT22;3952;48.364;16.022;2023-04-01T10:28:44;14.80;99.90
7814;DHT22;3952;48.364;16.022;2023-04-01T10:37:42;14.80;99.90
7814;DHT22;3952;48.364;16.022;2023-04-01T10:43:50;14.80;99.90
7814;DHT22;3952;48.364;16.022;2023-04-01T10:46:58;15.20;99.90
7814;DHT22;3952;48.364;16.022;2023-04-01T10:49:48;15.60;99.90
7814;DHT22;3952;48.364;16.022;2023-04-01T10:52:56;15.60;99.90
7814;DHT22;3952;48.364;16.022;2023-04-01T10:55:44;15.70;99.90
7814;DHT22;3952;48.364;16.022;2023-04-01T10:58:48;15.60;99.90
7814;DHT22;3952;48.364;16.022;2023-04-01T11:04:59;15.50;99.90
7814;DHT22;3952;48.364;16.022;2023-04-01T11:07:55;15.60;99.90
7814;DHT22;3952;48.364;16.022;2023-04-01T11:11:00;15.50;99.90
7814;DHT22;3952;48.364;16.022;2023-04-01T11:13:56;15.40;99.90
7814;DHT22;3952;48.364;16.022;2023-04-01T11:17:07;15.40;99.90
7814;DHT22;3952;48.364;16.022;2023-04-01T11:26:01;15.40;99.90
7814;DHT22;3952;48.364;16.022;2023-04-01T11:31:42;15.40;99.90
7814;DHT22;3952;48.364;16.022;2023-04-01T11:34:29;15.30;99.90
7814;DHT22;3952;48.364;16.022;2023-04-01T11:37:05;15.30;99.90
7814;DHT22;3952;48.364;16.022;2023-04-01T11:39:42;15.60;99.90
7814;DHT22;3952;48.364;16.022;2023-04-01T11:42:21;16.00;99.90
7814;DHT22;3952;48.364;16.022;2023-04-01T11:44:58;16.20;99.90
7814;DHT22;3952;48.364;16.022;2023-04-01T11:47:52;16.40;99.90
7814;DHT22;3952;48.364;16.022;2023-04-01T11:50:30;16.60;99.90
7814;DHT22;3952;48.364;16.022;2023-04-01T11:53:18;16.80;99.90
7814;DHT22;3952;48.364;16.022;2023-04-01T11:56:09;17.10;99.90
7814;DHT22;3952;48.364;16.022;2023-04-01T12:02:05;17.30;99.90
7814;DHT22;3952;48.364;16.022;2023-04-01T12:04:58;17.60;99.90
7814;DHT22;3952;48.364;16.022;2023-04-01T12:07:44;17.60;99.90
7814;DHT22;3952;48.364;16.022;2023-04-01T12:10:19;17.50;99.70
7814;DHT22;3952;48.364;16.022;2023-04-01T12:12:57;17.20;99.90
7814;DHT22;3952;48.364;16.022;2023-04-01T12:15:32;17.10;99.90
7814;DHT22;3952;48.364;16.022;2023-04-01T12:18:10;16.90;99.80
7814;DHT22;3952;48.364;16.022;2023-04-01T12:20:49;16.70;99.90
7814;DHT22;3952;48.364;16.022;2023-04-01T12:23:39;16.60;99.90
7814;DHT22;3952;48.364;16.022;2023-04-01T12:26:36;16.60;99.90
7814;DHT22;3952;48.364;16.022;2023-04-01T12:29:23;16.50;99.90
7814;DHT22;3952;48.364;16.022;2023-04-01T12:32:03;16.60;99.90
7814;DHT22;3952;48.364;16.022;2023-04-01T12:37:39;17.00;99.90
7814;DHT22;3952;48.364;16.022;2023-04-01T12:40:31;17.00;99.30
7814;DHT22;3952;48.364;16.022;2023-04-01T12:43:21;16.80;99.50
7814;DHT22;3952;48.364;16.022;2023-04-01T12:46:03;16.70;99.10
7814;DHT22;3952;48.364;16.022;2023-04-01T12:49:10;16.50;99.30
7814;DHT22;3952;48.364;16.022;2023-04-01T12:52:05;16.40;99.90
7814;DHT22;3952;48.364;16.022;2023-04-01T12:55:06;16.30;99.90
7814;DHT22;3952;48.364;16.022;2023-04-01T12:58:00;16.20;99.90
7814;DHT22;3952;48.364;16.022;2023-04-01T13:00:48;16.10;99.90
7814;DHT22;3952;48.364;16.022;2023-04-01T13:06:24;16.00;99.90
7814;DHT22;3952;48.364;16.022;2023-04-01T13:09:00;15.90;99.90
7814;DHT22;3952;48.364;16.022;2023-04-01T13:11:38;15.90;99.90
7814;DHT22;3952;48.364;16.022;2023-04-01T13:17:16;16.10;99.90
7814;DHT22;3952;48.364;16.022;2023-04-01T13:19:52;16.30;99.50
7814;DHT22;3952;48.364;16.022;2023-04-01T13:22:26;16.50;97.90
7814;DHT22;3952;48.364;16.022;2023-04-01T13:25:01;16.50;99.40
7814;DHT22;3952;48.364;16.022;2023-04-01T13:27:35;16.60;98.60
7814;DHT22;3952;48.364;16.022;2023-04-01T13:30:20;16.60;98.90
7814;DHT22;3952;48.364;16.022;2023-04-01T13:32:57;16.60;98.50
7814;DHT22;3952;48.364;16.022;2023-04-01T13:35:39;16.70;98.10
7814;DHT22;3952;48.364;16.022;2023-04-01T13:38:44;16.50;98.10
7814;DHT22;3952;48.364;16.022;2023-04-01T13:41:22;16.40;98.40
7814;DHT22;3952;48.364;16.022;2023-04-01T13:43:57;16.40;99.00
7814;DHT22;3952;48.364;16.022;2023-04-01T13:46:38;16.40;99.20
7814;DHT22;3952;48.364;16.022;2023-04-01T13:52:37;16.40;99.00
7814;DHT22;3952;48.364;16.022;2023-04-01T13:55:24;16.40;97.40
7814;DHT22;3952;48.364;16.022;2023-04-01T13:58:22;16.20;96.00
7814;DHT22;3952;48.364;16.022;2023-04-01T14:00:55;16.20;95.80
7814;DHT22;3952;48.364;16.022;2023-04-01T14:03:32;16.10;96.10
7814;DHT22;3952;48.364;16.022;2023-04-01T14:06:19;16.10;96.60
7814;DHT22;3952;48.364;16.022;2023-04-01T14:09:10;16.10;97.20
7814;DHT22;3952;48.364;16.022;2023-04-01T14:11:48;16.20;97.00
7814;DHT22;3952;48.364;16.022;2023-04-01T14:14:24;16.30;96.50
7814;DHT22;3952;48.364;16.022;2023-04-01T14:17:07;16.30;98.20
7814;DHT22;3952;48.364;16.022;2023-04-01T14:19:53;16.40;98.90
7814;DHT22;3952;48.364;16.022;2023-04-01T14:22:33;16.30;99.30
7814;DHT22;3952;48.364;16.022;2023-04-01T14:25:26;16.30;98.90
7814;DHT22;3952;48.364;16.022;2023-04-01T14:28:03;16.30;98.60
7814;DHT22;3952;48.364;16.022;2023-04-01T14:30:52;16.20;99.00
7814;DHT22;3952;48.364;16.022;2023-04-01T14:33:32;16.30;97.60
7814;DHT22;3952;48.364;16.022;2023-04-01T14:36:25;16.40;96.40
7814;DHT22;3952;48.364;16.022;2023-04-01T14:39:00;16.50;96.00
7814;DHT22;3952;48.364;16.022;2023-04-01T14:41:45;16.60;95.00
7814;DHT22;3952;48.364;16.022;2023-04-01T14:44:28;16.70;95.20
7814;DHT22;3952;48.364;16.022;2023-04-01T14:47:25;16.80;94.50
7814;DHT22;3952;48.364;16.022;2023-04-01T14:50:05;16.80;94.50
7814;DHT22;3952;48.364;16.022;2023-04-01T14:52:36;16.80;94.90
7814;DHT22;3952;48.364;16.022;2023-04-01T14:55:31;16.90;94.70
7814;DHT22;3952;48.364;16.022;2023-04-01T14:58:09;16.90;94.70
7814;DHT22;3952;48.364;16.022;2023-04-01T15:00:50;16.90;94.90
7814;DHT22;3952;48.364;16.022;2023-04-01T15:03:26;17.00;93.40
7814;DHT22;3952;48.364;16.022;2023-04-01T15:06:22;16.90;94.00
7814;DHT22;3952;48.364;16.022;2023-04-01T15:08:58;16.90;94.00
7814;DHT22;3952;48.364;16.022;2023-04-01T15:11:42;16.90;93.70
7814;DHT22;3952;48.364;16.022;2023-04-01T15:14:39;16.80;94.40
7814;DHT22;3952;48.364;16.022;2023-04-01T15:23:09;16.30;95.20
7814;DHT22;3952;48.364;16.022;2023-04-01T15:25:50;16.10;95.80
7814;DHT22;3952;48.364;16.022;2023-04-01T15:28:26;16.10;96.50
7814;DHT22;3952;48.364;16.022;2023-04-01T15:31:01;16.00;96.40
7814;DHT22;3952;48.364;16.022;2023-04-01T15:33:43;16.00;97.10
7814;DHT22;3952;48.364;16.022;2023-04-01T15:36:22;15.90;97.70
7814;DHT22;3952;48.364;16.022;2023-04-01T15:38:55;15.60;97.90
7814;DHT22;3952;48.364;16.022;2023-04-01T15:41:36;15.30;98.50
7814;DHT22;3952;48.364;16.022;2023-04-01T15:47:39;15.00;99.80
7814;DHT22;3952;48.364;16.022;2023-04-01T15:50:33;14.90;99.90
7814;DHT22;3952;48.364;16.022;2023-04-01T15:53:09;14.80;99.90
7814;DHT22;3952;48.364;16.022;2023-04-01T15:55:43;14.70;99.90
7814;DHT22;3952;48.364;16.022;2023-04-01T15:58:34;14.70;99.90
7814;DHT22;3952;48.364;16.022;2023-04-01T16:01:15;14.70;99.90
7814;DHT22;3952;48.364;16.022;2023-04-01T16:03:52;14.60;99.90
7814;DHT22;3952;48.364;16.022;2023-04-01T16:06:35;14.60;99.90
7814;DHT22;3952;48.364;16.022;2023-04-01T16:09:19;14.60;99.90
7814;DHT22;3952;48.364;16.022;2023-04-01T16:11:57;14.60;99.90
7814;DHT22;3952;48.364;16.022;2023-04-01T16:14:36;14.50;99.90
7814;DHT22;3952;48.364;16.022;2023-04-01T16:17:27;14.50;99.90
7814;DHT22;3952;48.364;16.022;2023-04-01T16:20:02;14.50;99.90
7814;DHT22;3952;48.364;16.022;2023-04-01T16:22:45;14.40;99.90
7814;DHT22;3952;48.364;16.022;2023-04-01T16:25:20;13.70;99.90
7814;DHT22;3952;48.364;16.022;2023-04-01T16:28:09;14.50;99.90
7814;DHT22;3952;48.364;16.022;2023-04-01T16:30:45;14.50;99.90
7814;DHT22;3952;48.364;16.022;2023-04-01T16:33:18;14.50;99.90
7814;DHT22;3952;48.364;16.022;2023-04-01T16:35:54;14.50;99.90
7814;DHT22;3952;48.364;16.022;2023-04-01T16:38:26;14.60;99.90
7814;DHT22;3952;48.364;16.022;2023-04-01T16:41:11;14.50;99.90
7814;DHT22;3952;48.364;16.022;2023-04-01T16:43:42;14.50;99.90
7814;DHT22;3952;48.364;16.022;2023-04-01T16:46:28;14.50;99.90
7814;DHT22;3952;48.364;16.022;2023-04-01T16:49:00;14.50;99.90
7814;DHT22;3952;48.364;16.022;2023-04-01T16:51:45;14.30;99.90
7814;DHT22;3952;48.364;16.022;2023-04-01T16:54:18;14.10;99.90
7814;DHT22;3952;48.364;16.022;2023-04-01T16:56:56;14.00;99.90
7814;DHT22;3952;48.364;16.022;2023-04-01T16:59:35;13.90;99.90
7814;DHT22;3952;48.364;16.022;2023-04-01T17:02:08;13.80;99.90
7814;DHT22;3952;48.364;16.022;2023-04-01T17:04:43;13.70;99.90
7814;DHT22;3952;48.364;16.022;2023-04-01T17:07:26;13.50;99.90
7814;DHT22;3952;48.364;16.022;2023-04-01T17:10:06;13.40;99.90
7814;DHT22;3952;48.364;16.022;2023-04-01T17:12:42;13.30;99.90
7814;DHT22;3952;48.364;16.022;2023-04-01T17:15:17;13.20;99.90
7814;DHT22;3952;48.364;16.022;2023-04-01T17:17:52;13.00;99.90
7814;DHT22;3952;48.364;16.022;2023-04-01T17:20:31;13.00;99.90
7814;DHT22;3952;48.364;16.022;2023-04-01T17:23:09;12.90;99.90
7814;DHT22;3952;48.364;16.022;2023-04-01T17:26:05;12.90;99.90
7814;DHT22;3952;48.364;16.022;2023-04-01T17:28:41;12.80;99.90
7814;DHT22;3952;48.364;16.022;2023-04-01T17:31:18;12.70;99.90
7814;DHT22;3952;48.364;16.022;2023-04-01T17:33:57;12.70;99.90
7814;DHT22;3952;48.364;16.022;2023-04-01T17:36:36;12.60;99.90
7814;DHT22;3952;48.364;16.022;2023-04-01T17:39:20;12.60;99.90
7814;DHT22;3952;48.364;16.022;2023-04-01T17:41:54;12.50;99.90
7814;DHT22;3952;48.364;16.022;2023-04-01T17:44:39;12.50;99.90
7814;DHT22;3952;48.364;16.022;2023-04-01T17:47:24;12.40;99.90
7814;DHT22;3952;48.364;16.022;2023-04-01T17:50:00;12.40;99.90
7814;DHT22;3952;48.364;16.022;2023-04-01T17:52:32;12.30;99.90
7814;DHT22;3952;48.364;16.022;2023-04-01T17:55:34;12.30;99.90
7814;DHT22;3952;48.364;16.022;2023-04-01T17:58:10;12.20;99.90
7814;DHT22;3952;48.364;16.022;2023-04-01T18:00:51;12.10;99.90
7814;DHT22;3952;48.364;16.022;2023-04-01T18:03:37;12.10;99.90
7814;DHT22;3952;48.364;16.022;2023-04-01T18:06:14;12.00;99.90
7814;DHT22;3952;48.364;16.022;2023-04-01T18:08:57;11.90;99.90
7814;DHT22;3952;48.364;16.022;2023-04-01T18:11:34;11.90;99.90
7814;DHT22;3952;48.364;16.022;2023-04-01T18:14:29;11.80;99.90
7814;DHT22;3952;48.364;16.022;2023-04-01T18:17:17;11.70;99.90
7814;DHT22;3952;48.364;16.022;2023-04-01T18:20:02;11.60;99.90
7814;DHT22;3952;48.364;16.022;2023-04-01T18:22:38;11.60;99.90
7814;DHT22;3952;48.364;16.022;2023-04-01T18:25:16;11.50;99.90